sensor_id;sensor_type;location;lat;lon;timestamp;P1;durP1;ratioP1;P2;durP2;ratioP2
70138;SDS011;57507;43.056;0.150;2023-02-28T00:00:19;4.80;;;3.83;;
70138;SDS011;57507;43.056;0.150;2023-02-28T00:02:46;4.63;;;3.25;;
70138;SDS011;57507;43.056;0.150;2023-02-28T00:05:13;5.15;;;4.53;;
70138;SDS011;57507;43.056;0.150;2023-02-28T00:07:39;6.05;;;3.70;;
70138;SDS011;57507;43.056;0.150;2023-02-28T00:10:07;3.60;;;3.28;;
70138;SDS011;57507;43.056;0.150;2023-02-28T00:12:34;4.47;;;4.07;;
70138;SDS011;57507;43.056;0.150;2023-02-28T00:15:00;5.90;;;4.05;;
70138;SDS011;57507;43.056;0.150;2023-02-28T00:17:26;5.38;;;4.05;;
70138;SDS011;57507;43.056;0.150;2023-02-28T00:19:52;6.40;;;3.92;;
70138;SDS011;57507;43.056;0.150;2023-02-28T00:22:19;4.97;;;4.03;;
70138;SDS011;57507;43.056;0.150;2023-02-28T00:24:46;5.68;;;4.53;;
70138;SDS011;57507;43.056;0.150;2023-02-28T00:27:13;5.70;;;4.45;;
70138;SDS011;57507;43.056;0.150;2023-02-28T00:29:39;7.85;;;5.10;;
70138;SDS011;57507;43.056;0.150;2023-02-28T00:32:05;4.90;;;4.38;;
70138;SDS011;57507;43.056;0.150;2023-02-28T00:34:32;4.40;;;3.95;;
70138;SDS011;57507;43.056;0.150;2023-02-28T00:37:06;6.80;;;4.88;;
70138;SDS011;57507;43.056;0.150;2023-02-28T00:39:36;7.03;;;4.57;;
70138;SDS011;57507;43.056;0.150;2023-02-28T00:42:02;6.05;;;4.68;;
70138;SDS011;57507;43.056;0.150;2023-02-28T00:44:29;5.22;;;4.20;;
70138;SDS011;57507;43.056;0.150;2023-02-28T00:46:55;5.38;;;4.05;;
70138;SDS011;57507;43.056;0.150;2023-02-28T00:49:21;5.25;;;4.18;;
70138;SDS011;57507;43.056;0.150;2023-02-28T00:51:47;4.95;;;4.35;;
70138;SDS011;57507;43.056;0.150;2023-02-28T00:54:13;6.35;;;5.13;;
70138;SDS011;57507;43.056;0.150;2023-02-28T00:56:39;6.10;;;4.82;;
70138;SDS011;57507;43.056;0.150;2023-02-28T00:59:05;5.38;;;4.43;;
70138;SDS011;57507;43.056;0.150;2023-02-28T01:01:32;4.75;;;3.63;;
70138;SDS011;57507;43.056;0.150;2023-02-28T01:03:58;5.90;;;4.18;;
70138;SDS011;57507;43.056;0.150;2023-02-28T01:06:24;6.10;;;4.22;;
70138;SDS011;57507;43.056;0.150;2023-02-28T01:08:50;4.30;;;3.90;;
70138;SDS011;57507;43.056;0.150;2023-02-28T01:11:16;6.75;;;4.20;;
70138;SDS011;57507;43.056;0.150;2023-02-28T01:13:43;4.20;;;3.50;;
70138;SDS011;57507;43.056;0.150;2023-02-28T01:16:09;5.18;;;4.10;;
70138;SDS011;57507;43.056;0.150;2023-02-28T01:18:36;4.78;;;3.38;;
70138;SDS011;57507;43.056;0.150;2023-02-28T01:21:03;4.85;;;3.90;;
70138;SDS011;57507;43.056;0.150;2023-02-28T01:23:29;4.80;;;3.45;;
70138;SDS011;57507;43.056;0.150;2023-02-28T01:25:55;3.88;;;3.30;;
70138;SDS011;57507;43.056;0.150;2023-02-28T01:28:21;3.72;;;2.88;;
70138;SDS011;57507;43.056;0.150;2023-02-28T01:30:48;4.88;;;3.67;;
70138;SDS011;57507;43.056;0.150;2023-02-28T01:33:14;5.25;;;4.60;;
70138;SDS011;57507;43.056;0.150;2023-02-28T01:35:40;5.40;;;3.75;;
70138;SDS011;57507;43.056;0.150;2023-02-28T01:38:06;4.03;;;3.63;;
70138;SDS011;57507;43.056;0.150;2023-02-28T01:40:32;5.25;;;3.42;;
70138;SDS011;57507;43.056;0.150;2023-02-28T01:42:58;4.75;;;3.42;;
70138;SDS011;57507;43.056;0.150;2023-02-28T01:45:25;5.20;;;4.13;;
70138;SDS011;57507;43.056;0.150;2023-02-28T01:47:52;3.78;;;3.38;;
70138;SDS011;57507;43.056;0.150;2023-02-28T01:50:20;4.10;;;3.50;;
70138;SDS011;57507;43.056;0.150;2023-02-28T01:52:47;4.22;;;3.22;;
70138;SDS011;57507;43.056;0.150;2023-02-28T01:55:14;4.70;;;4.13;;
70138;SDS011;57507;43.056;0.150;2023-02-28T01:57:46;4.57;;;3.83;;
70138;SDS011;57507;43.056;0.150;2023-02-28T02:00:14;5.32;;;3.67;;
70138;SDS011;57507;43.056;0.150;2023-02-28T02:02:42;5.18;;;2.92;;
70138;SDS011;57507;43.056;0.150;2023-02-28T02:05:10;4.63;;;3.78;;
70138;SDS011;57507;43.056;0.150;2023-02-28T02:07:37;4.72;;;3.05;;
70138;SDS011;57507;43.056;0.150;2023-02-28T02:10:11;4.45;;;3.17;;
70138;SDS011;57507;43.056;0.150;2023-02-28T02:15:34;5.32;;;3.28;;
70138;SDS011;57507;43.056;0.150;2023-02-28T02:18:03;3.33;;;3.03;;
70138;SDS011;57507;43.056;0.150;2023-02-28T02:39:04;2.85;;;2.25;;
70138;SDS011;57507;43.056;0.150;2023-02-28T02:41:36;2.80;;;1.70;;
70138;SDS011;57507;43.056;0.150;2023-02-28T02:44:20;4.57;;;3.58;;
70138;SDS011;57507;43.056;0.150;2023-02-28T02:46:47;3.60;;;3.03;;
70138;SDS011;57507;43.056;0.150;2023-02-28T02:49:20;4.07;;;3.25;;
70138;SDS011;57507;43.056;0.150;2023-02-28T02:51:47;4.45;;;3.47;;
70138;SDS011;57507;43.056;0.150;2023-02-28T02:56:41;4.32;;;3.80;;
70138;SDS011;57507;43.056;0.150;2023-02-28T02:59:09;4.13;;;3.72;;
70138;SDS011;57507;43.056;0.150;2023-02-28T03:01:36;3.95;;;3.13;;
70138;SDS011;57507;43.056;0.150;2023-02-28T03:04:13;4.82;;;3.83;;
70138;SDS011;57507;43.056;0.150;2023-02-28T03:06:41;4.45;;;3.50;;
70138;SDS011;57507;43.056;0.150;2023-02-28T03:09:08;4.10;;;3.22;;
70138;SDS011;57507;43.056;0.150;2023-02-28T03:11:34;3.05;;;2.78;;
70138;SDS011;57507;43.056;0.150;2023-02-28T03:19:23;4.20;;;3.47;;
70138;SDS011;57507;43.056;0.150;2023-02-28T03:27:06;4.05;;;2.78;;
70138;SDS011;57507;43.056;0.150;2023-02-28T03:29:36;3.05;;;2.65;;
70138;SDS011;57507;43.056;0.150;2023-02-28T03:32:06;4.10;;;3.22;;
70138;SDS011;57507;43.056;0.150;2023-02-28T03:34:39;4.25;;;3.50;;
70138;SDS011;57507;43.056;0.150;2023-02-28T03:37:08;3.40;;;2.72;;
70138;SDS011;57507;43.056;0.150;2023-02-28T03:42:21;4.60;;;3.38;;
70138;SDS011;57507;43.056;0.150;2023-02-28T03:44:51;4.13;;;3.15;;
70138;SDS011;57507;43.056;0.150;2023-02-28T03:47:21;3.03;;;2.72;;
70138;SDS011;57507;43.056;0.150;2023-02-28T03:49:59;4.88;;;3.53;;
70138;SDS011;57507;43.056;0.150;2023-02-28T03:52:27;3.03;;;2.53;;
70138;SDS011;57507;43.056;0.150;2023-02-28T03:54:54;3.63;;;2.80;;
70138;SDS011;57507;43.056;0.150;2023-02-28T03:57:24;4.38;;;2.80;;
70138;SDS011;57507;43.056;0.150;2023-02-28T04:00:14;3.13;;;2.70;;
70138;SDS011;57507;43.056;0.150;2023-02-28T04:02:38;3.67;;;2.35;;
70138;SDS011;57507;43.056;0.150;2023-02-28T04:05:05;3.13;;;2.58;;
70138;SDS011;57507;43.056;0.150;2023-02-28T04:07:31;3.42;;;2.63;;
70138;SDS011;57507;43.056;0.150;2023-02-28T04:09:57;3.92;;;2.58;;
70138;SDS011;57507;43.056;0.150;2023-02-28T04:12:24;3.63;;;2.53;;
70138;SDS011;57507;43.056;0.150;2023-02-28T04:14:50;4.60;;;2.90;;
70138;SDS011;57507;43.056;0.150;2023-02-28T04:17:16;4.22;;;2.80;;
70138;SDS011;57507;43.056;0.150;2023-02-28T04:19:42;4.32;;;2.72;;
70138;SDS011;57507;43.056;0.150;2023-02-28T04:22:09;3.42;;;2.72;;
70138;SDS011;57507;43.056;0.150;2023-02-28T04:24:35;2.90;;;2.42;;
70138;SDS011;57507;43.056;0.150;2023-02-28T04:27:01;3.65;;;2.45;;
70138;SDS011;57507;43.056;0.150;2023-02-28T04:29:31;2.75;;;2.40;;
70138;SDS011;57507;43.056;0.150;2023-02-28T04:31:57;2.53;;;2.15;;
70138;SDS011;57507;43.056;0.150;2023-02-28T04:34:24;2.42;;;2.08;;
70138;SDS011;57507;43.056;0.150;2023-02-28T04:36:51;2.83;;;2.35;;
70138;SDS011;57507;43.056;0.150;2023-02-28T04:39:19;2.20;;;2.00;;
70138;SDS011;57507;43.056;0.150;2023-02-28T04:41:45;2.58;;;2.13;;
70138;SDS011;57507;43.056;0.150;2023-02-28T04:44:12;2.53;;;2.33;;
70138;SDS011;57507;43.056;0.150;2023-02-28T04:46:38;3.05;;;2.17;;
70138;SDS011;57507;43.056;0.150;2023-02-28T04:49:04;2.20;;;1.92;;
70138;SDS011;57507;43.056;0.150;2023-02-28T04:51:30;2.10;;;1.90;;
70138;SDS011;57507;43.056;0.150;2023-02-28T04:53:56;2.38;;;2.17;;
70138;SDS011;57507;43.056;0.150;2023-02-28T04:56:22;2.42;;;1.85;;
70138;SDS011;57507;43.056;0.150;2023-02-28T04:58:49;3.13;;;2.22;;
70138;SDS011;57507;43.056;0.150;2023-02-28T05:01:18;2.60;;;1.83;;
70138;SDS011;57507;43.056;0.150;2023-02-28T05:03:44;2.28;;;1.83;;
70138;SDS011;57507;43.056;0.150;2023-02-28T05:06:11;2.92;;;2.03;;
70138;SDS011;57507;43.056;0.150;2023-02-28T05:08:37;3.22;;;2.47;;
70138;SDS011;57507;43.056;0.150;2023-02-28T05:11:05;3.35;;;2.38;;
70138;SDS011;57507;43.056;0.150;2023-02-28T05:13:31;3.65;;;2.47;;
70138;SDS011;57507;43.056;0.150;2023-02-28T05:15:57;2.65;;;2.25;;
70138;SDS011;57507;43.056;0.150;2023-02-28T05:18:24;3.00;;;2.70;;
70138;SDS011;57507;43.056;0.150;2023-02-28T05:20:50;3.30;;;2.50;;
70138;SDS011;57507;43.056;0.150;2023-02-28T05:23:16;2.58;;;2.35;;
70138;SDS011;57507;43.056;0.150;2023-02-28T05:25:43;3.63;;;2.80;;
70138;SDS011;57507;43.056;0.150;2023-02-28T05:28:09;2.92;;;2.40;;
70138;SDS011;57507;43.056;0.150;2023-02-28T05:30:35;4.45;;;2.80;;
70138;SDS011;57507;43.056;0.150;2023-02-28T05:33:01;3.92;;;2.90;;
70138;SDS011;57507;43.056;0.150;2023-02-28T05:35:27;2.88;;;2.40;;
70138;SDS011;57507;43.056;0.150;2023-02-28T05:37:53;2.47;;;2.10;;
70138;SDS011;57507;43.056;0.150;2023-02-28T05:40:19;7.78;;;4.60;;
70138;SDS011;57507;43.056;0.150;2023-02-28T05:42:45;4.57;;;2.55;;
70138;SDS011;57507;43.056;0.150;2023-02-28T05:45:11;3.20;;;2.63;;
70138;SDS011;57507;43.056;0.150;2023-02-28T05:47:38;3.38;;;2.47;;
70138;SDS011;57507;43.056;0.150;2023-02-28T05:50:04;4.78;;;3.55;;
70138;SDS011;57507;43.056;0.150;2023-02-28T05:52:30;4.00;;;2.97;;
70138;SDS011;57507;43.056;0.150;2023-02-28T05:54:57;3.90;;;3.20;;
70138;SDS011;57507;43.056;0.150;2023-02-28T05:57:23;3.40;;;2.20;;
70138;SDS011;57507;43.056;0.150;2023-02-28T05:59:49;3.40;;;2.78;;
70138;SDS011;57507;43.056;0.150;2023-02-28T06:02:16;3.65;;;3.15;;
70138;SDS011;57507;43.056;0.150;2023-02-28T06:04:42;5.55;;;3.50;;
70138;SDS011;57507;43.056;0.150;2023-02-28T06:07:09;4.60;;;3.13;;
70138;SDS011;57507;43.056;0.150;2023-02-28T06:09:35;4.80;;;3.40;;
70138;SDS011;57507;43.056;0.150;2023-02-28T06:12:02;3.38;;;2.47;;
70138;SDS011;57507;43.056;0.150;2023-02-28T06:14:30;3.35;;;1.95;;
70138;SDS011;57507;43.056;0.150;2023-02-28T06:16:57;2.72;;;2.10;;
70138;SDS011;57507;43.056;0.150;2023-02-28T06:19:23;3.22;;;2.20;;
70138;SDS011;57507;43.056;0.150;2023-02-28T06:21:52;2.42;;;2.20;;
70138;SDS011;57507;43.056;0.150;2023-02-28T06:24:22;2.65;;;2.25;;
70138;SDS011;57507;43.056;0.150;2023-02-28T06:26:48;3.67;;;2.88;;
70138;SDS011;57507;43.056;0.150;2023-02-28T06:29:14;3.70;;;2.75;;
70138;SDS011;57507;43.056;0.150;2023-02-28T06:31:42;3.70;;;2.97;;
70138;SDS011;57507;43.056;0.150;2023-02-28T06:34:09;5.03;;;2.92;;
70138;SDS011;57507;43.056;0.150;2023-02-28T06:36:36;4.60;;;3.60;;
70138;SDS011;57507;43.056;0.150;2023-02-28T06:39:03;5.63;;;2.40;;
70138;SDS011;57507;43.056;0.150;2023-02-28T06:41:29;4.07;;;2.90;;
70138;SDS011;57507;43.056;0.150;2023-02-28T06:43:55;2.60;;;2.08;;
70138;SDS011;57507;43.056;0.150;2023-02-28T06:46:21;3.70;;;2.78;;
70138;SDS011;57507;43.056;0.150;2023-02-28T06:48:47;3.65;;;3.15;;
70138;SDS011;57507;43.056;0.150;2023-02-28T06:51:17;4.45;;;3.40;;
70138;SDS011;57507;43.056;0.150;2023-02-28T06:53:45;3.70;;;2.80;;
70138;SDS011;57507;43.056;0.150;2023-02-28T06:56:13;5.93;;;4.30;;
70138;SDS011;57507;43.056;0.150;2023-02-28T06:58:39;2.60;;;2.28;;
70138;SDS011;57507;43.056;0.150;2023-02-28T07:01:06;2.58;;;2.38;;
70138;SDS011;57507;43.056;0.150;2023-02-28T07:03:32;3.45;;;2.40;;
70138;SDS011;57507;43.056;0.150;2023-02-28T07:05:58;3.38;;;2.25;;
70138;SDS011;57507;43.056;0.150;2023-02-28T07:08:24;3.97;;;2.38;;
70138;SDS011;57507;43.056;0.150;2023-02-28T07:10:52;3.85;;;3.03;;
70138;SDS011;57507;43.056;0.150;2023-02-28T07:13:18;2.13;;;1.92;;
70138;SDS011;57507;43.056;0.150;2023-02-28T07:15:44;3.20;;;2.13;;
70138;SDS011;57507;43.056;0.150;2023-02-28T07:18:10;3.60;;;2.05;;
70138;SDS011;57507;43.056;0.150;2023-02-28T07:20:36;3.03;;;2.50;;
70138;SDS011;57507;43.056;0.150;2023-02-28T07:23:02;3.03;;;2.42;;
70138;SDS011;57507;43.056;0.150;2023-02-28T07:25:28;3.75;;;2.70;;
70138;SDS011;57507;43.056;0.150;2023-02-28T07:27:55;3.95;;;2.65;;
70138;SDS011;57507;43.056;0.150;2023-02-28T07:30:21;6.00;;;4.03;;
70138;SDS011;57507;43.056;0.150;2023-02-28T07:32:47;3.22;;;2.85;;
70138;SDS011;57507;43.056;0.150;2023-02-28T07:35:13;3.30;;;2.80;;
70138;SDS011;57507;43.056;0.150;2023-02-28T07:37:40;3.88;;;2.78;;
70138;SDS011;57507;43.056;0.150;2023-02-28T07:40:07;4.80;;;2.95;;
70138;SDS011;57507;43.056;0.150;2023-02-28T07:42:37;2.92;;;2.35;;
70138;SDS011;57507;43.056;0.150;2023-02-28T07:45:03;2.45;;;2.13;;
70138;SDS011;57507;43.056;0.150;2023-02-28T07:47:30;3.92;;;2.50;;
70138;SDS011;57507;43.056;0.150;2023-02-28T07:49:56;4.07;;;2.63;;
70138;SDS011;57507;43.056;0.150;2023-02-28T07:52:22;2.58;;;2.35;;
70138;SDS011;57507;43.056;0.150;2023-02-28T07:54:51;3.42;;;2.53;;
70138;SDS011;57507;43.056;0.150;2023-02-28T07:57:17;4.53;;;2.95;;
70138;SDS011;57507;43.056;0.150;2023-02-28T07:59:43;3.17;;;2.70;;
70138;SDS011;57507;43.056;0.150;2023-02-28T08:02:16;3.58;;;2.13;;
70138;SDS011;57507;43.056;0.150;2023-02-28T08:04:43;4.30;;;2.38;;
70138;SDS011;57507;43.056;0.150;2023-02-28T08:07:10;3.33;;;2.65;;
70138;SDS011;57507;43.056;0.150;2023-02-28T08:09:38;4.63;;;2.25;;
70138;SDS011;57507;43.056;0.150;2023-02-28T08:12:04;3.60;;;2.55;;
70138;SDS011;57507;43.056;0.150;2023-02-28T08:14:30;4.28;;;3.58;;
70138;SDS011;57507;43.056;0.150;2023-02-28T08:16:56;4.38;;;3.25;;
70138;SDS011;57507;43.056;0.150;2023-02-28T08:19:22;3.40;;;2.50;;
70138;SDS011;57507;43.056;0.150;2023-02-28T08:21:49;5.07;;;3.03;;
70138;SDS011;57507;43.056;0.150;2023-02-28T08:24:15;4.18;;;3.20;;
70138;SDS011;57507;43.056;0.150;2023-02-28T08:26:41;3.05;;;2.63;;
70138;SDS011;57507;43.056;0.150;2023-02-28T08:29:07;3.10;;;2.80;;
70138;SDS011;57507;43.056;0.150;2023-02-28T08:31:33;7.75;;;3.10;;
70138;SDS011;57507;43.056;0.150;2023-02-28T08:34:04;4.00;;;2.58;;
70138;SDS011;57507;43.056;0.150;2023-02-28T08:36:30;3.25;;;2.92;;
70138;SDS011;57507;43.056;0.150;2023-02-28T08:38:56;4.55;;;3.20;;
70138;SDS011;57507;43.056;0.150;2023-02-28T08:41:24;4.60;;;3.50;;
70138;SDS011;57507;43.056;0.150;2023-02-28T08:43:51;4.00;;;3.22;;
70138;SDS011;57507;43.056;0.150;2023-02-28T08:46:17;4.25;;;3.08;;
70138;SDS011;57507;43.056;0.150;2023-02-28T08:48:43;3.67;;;2.60;;
70138;SDS011;57507;43.056;0.150;2023-02-28T08:51:11;3.90;;;3.15;;
70138;SDS011;57507;43.056;0.150;2023-02-28T08:53:38;3.67;;;2.40;;
70138;SDS011;57507;43.056;0.150;2023-02-28T08:58:31;3.30;;;2.90;;
70138;SDS011;57507;43.056;0.150;2023-02-28T09:00:57;4.28;;;3.05;;
70138;SDS011;57507;43.056;0.150;2023-02-28T09:03:23;2.90;;;2.65;;
70138;SDS011;57507;43.056;0.150;2023-02-28T09:05:56;2.63;;;2.42;;
70138;SDS011;57507;43.056;0.150;2023-02-28T09:08:23;3.28;;;2.90;;
70138;SDS011;57507;43.056;0.150;2023-02-28T09:10:49;3.35;;;2.90;;
70138;SDS011;57507;43.056;0.150;2023-02-28T09:13:16;3.38;;;2.90;;
70138;SDS011;57507;43.056;0.150;2023-02-28T09:15:42;3.42;;;3.00;;
70138;SDS011;57507;43.056;0.150;2023-02-28T09:18:08;3.67;;;2.88;;
70138;SDS011;57507;43.056;0.150;2023-02-28T09:20:36;4.35;;;3.25;;
70138;SDS011;57507;43.056;0.150;2023-02-28T09:23:03;3.28;;;2.95;;
70138;SDS011;57507;43.056;0.150;2023-02-28T09:25:29;4.95;;;2.90;;
70138;SDS011;57507;43.056;0.150;2023-02-28T09:27:55;3.53;;;2.88;;
70138;SDS011;57507;43.056;0.150;2023-02-28T09:30:21;2.90;;;2.60;;
70138;SDS011;57507;43.056;0.150;2023-02-28T09:32:47;3.67;;;2.63;;
70138;SDS011;57507;43.056;0.150;2023-02-28T09:35:18;3.53;;;2.92;;
70138;SDS011;57507;43.056;0.150;2023-02-28T09:37:46;4.13;;;3.05;;
70138;SDS011;57507;43.056;0.150;2023-02-28T09:40:12;3.80;;;2.83;;
70138;SDS011;57507;43.056;0.150;2023-02-28T09:42:39;3.47;;;2.90;;
70138;SDS011;57507;43.056;0.150;2023-02-28T09:45:21;3.53;;;2.88;;
70138;SDS011;57507;43.056;0.150;2023-02-28T09:47:48;4.60;;;3.00;;
70138;SDS011;57507;43.056;0.150;2023-02-28T09:53:30;3.55;;;3.25;;
70138;SDS011;57507;43.056;0.150;2023-02-28T09:56:01;3.75;;;2.45;;
70138;SDS011;57507;43.056;0.150;2023-02-28T10:00:56;4.22;;;3.03;;
70138;SDS011;57507;43.056;0.150;2023-02-28T10:03:41;3.08;;;2.42;;
70138;SDS011;57507;43.056;0.150;2023-02-28T10:06:19;3.92;;;2.88;;
70138;SDS011;57507;43.056;0.150;2023-02-28T10:11:26;3.83;;;2.60;;
70138;SDS011;57507;43.056;0.150;2023-02-28T10:13:54;3.58;;;2.60;;
70138;SDS011;57507;43.056;0.150;2023-02-28T10:16:34;3.70;;;3.08;;
70138;SDS011;57507;43.056;0.150;2023-02-28T10:19:14;5.10;;;2.33;;
70138;SDS011;57507;43.056;0.150;2023-02-28T10:21:47;2.50;;;2.30;;
70138;SDS011;57507;43.056;0.150;2023-02-28T10:27:21;3.53;;;2.85;;
70138;SDS011;57507;43.056;0.150;2023-02-28T10:29:47;3.15;;;2.83;;
70138;SDS011;57507;43.056;0.150;2023-02-28T10:32:21;3.70;;;3.03;;
70138;SDS011;57507;43.056;0.150;2023-02-28T10:37:14;3.45;;;2.92;;
70138;SDS011;57507;43.056;0.150;2023-02-28T10:39:42;4.10;;;2.90;;
70138;SDS011;57507;43.056;0.150;2023-02-28T10:42:27;3.25;;;2.95;;
70138;SDS011;57507;43.056;0.150;2023-02-28T10:45:09;4.03;;;3.17;;
70138;SDS011;57507;43.056;0.150;2023-02-28T10:47:37;3.42;;;2.80;;
70138;SDS011;57507;43.056;0.150;2023-02-28T10:50:10;3.72;;;3.15;;
70138;SDS011;57507;43.056;0.150;2023-02-28T10:52:52;3.75;;;3.03;;
70138;SDS011;57507;43.056;0.150;2023-02-28T10:55:23;4.45;;;3.20;;
70138;SDS011;57507;43.056;0.150;2023-02-28T10:57:50;3.30;;;2.90;;
70138;SDS011;57507;43.056;0.150;2023-02-28T11:02:43;5.57;;;3.38;;
70138;SDS011;57507;43.056;0.150;2023-02-28T11:07:52;4.20;;;3.50;;
70138;SDS011;57507;43.056;0.150;2023-02-28T11:10:19;4.63;;;3.30;;
70138;SDS011;57507;43.056;0.150;2023-02-28T11:12:46;3.10;;;2.80;;
70138;SDS011;57507;43.056;0.150;2023-02-28T11:15:26;3.85;;;2.90;;
70138;SDS011;57507;43.056;0.150;2023-02-28T11:20:37;3.50;;;2.97;;
70138;SDS011;57507;43.056;0.150;2023-02-28T11:23:04;3.38;;;2.80;;
70138;SDS011;57507;43.056;0.150;2023-02-28T11:25:32;3.78;;;2.97;;
70138;SDS011;57507;43.056;0.150;2023-02-28T11:28:01;4.40;;;3.22;;
70138;SDS011;57507;43.056;0.150;2023-02-28T11:32:53;4.40;;;3.30;;
70138;SDS011;57507;43.056;0.150;2023-02-28T11:35:38;4.53;;;3.53;;
70138;SDS011;57507;43.056;0.150;2023-02-28T11:38:07;3.33;;;2.80;;
70138;SDS011;57507;43.056;0.150;2023-02-28T11:40:39;4.03;;;2.88;;
70138;SDS011;57507;43.056;0.150;2023-02-28T11:56:21;3.40;;;2.90;;
70138;SDS011;57507;43.056;0.150;2023-02-28T12:06:50;4.90;;;3.67;;
70138;SDS011;57507;43.056;0.150;2023-02-28T12:11:51;3.95;;;3.40;;
70138;SDS011;57507;43.056;0.150;2023-02-28T12:27:12;3.70;;;3.38;;
70138;SDS011;57507;43.056;0.150;2023-02-28T12:34:42;3.92;;;3.33;;
70138;SDS011;57507;43.056;0.150;2023-02-28T12:37:22;3.53;;;2.88;;
70138;SDS011;57507;43.056;0.150;2023-02-28T12:39:51;4.18;;;2.95;;
70138;SDS011;57507;43.056;0.150;2023-02-28T12:42:24;4.00;;;3.22;;
70138;SDS011;57507;43.056;0.150;2023-02-28T12:44:52;4.30;;;3.65;;
70138;SDS011;57507;43.056;0.150;2023-02-28T12:47:20;4.70;;;2.60;;
70138;SDS011;57507;43.056;0.150;2023-02-28T12:49:49;4.32;;;3.17;;
70138;SDS011;57507;43.056;0.150;2023-02-28T12:53:00;3.85;;;3.00;;
70138;SDS011;57507;43.056;0.150;2023-02-28T12:58:08;4.30;;;3.22;;
70138;SDS011;57507;43.056;0.150;2023-02-28T13:00:38;4.38;;;3.70;;
70138;SDS011;57507;43.056;0.150;2023-02-28T13:06:02;3.70;;;3.20;;
70138;SDS011;57507;43.056;0.150;2023-02-28T13:09:16;4.78;;;3.22;;
70138;SDS011;57507;43.056;0.150;2023-02-28T13:11:51;4.65;;;3.35;;
70138;SDS011;57507;43.056;0.150;2023-02-28T13:19:45;4.18;;;3.50;;
70138;SDS011;57507;43.056;0.150;2023-02-28T13:22:17;3.75;;;3.35;;
70138;SDS011;57507;43.056;0.150;2023-02-28T13:29:42;4.47;;;3.65;;
70138;SDS011;57507;43.056;0.150;2023-02-28T13:49:55;3.75;;;2.88;;
70138;SDS011;57507;43.056;0.150;2023-02-28T13:52:48;4.32;;;2.83;;
70138;SDS011;57507;43.056;0.150;2023-02-28T13:55:20;3.45;;;3.00;;
70138;SDS011;57507;43.056;0.150;2023-02-28T14:00:20;3.55;;;3.13;;
70138;SDS011;57507;43.056;0.150;2023-02-28T14:02:52;3.03;;;2.67;;
70138;SDS011;57507;43.056;0.150;2023-02-28T14:05:21;3.65;;;2.50;;
70138;SDS011;57507;43.056;0.150;2023-02-28T14:07:55;2.90;;;2.67;;
70138;SDS011;57507;43.056;0.150;2023-02-28T14:10:30;5.72;;;3.22;;
70138;SDS011;57507;43.056;0.150;2023-02-28T14:12:58;2.70;;;2.50;;
70138;SDS011;57507;43.056;0.150;2023-02-28T14:18:01;3.88;;;2.95;;
70138;SDS011;57507;43.056;0.150;2023-02-28T14:20:29;3.22;;;2.80;;
70138;SDS011;57507;43.056;0.150;2023-02-28T14:23:01;3.28;;;2.40;;
70138;SDS011;57507;43.056;0.150;2023-02-28T14:25:32;3.55;;;2.50;;
70138;SDS011;57507;43.056;0.150;2023-02-28T14:30:29;3.17;;;2.88;;
70138;SDS011;57507;43.056;0.150;2023-02-28T14:38:20;3.88;;;2.65;;
70138;SDS011;57507;43.056;0.150;2023-02-28T14:40:47;3.50;;;3.10;;
70138;SDS011;57507;43.056;0.150;2023-02-28T14:43:21;3.28;;;2.50;;
70138;SDS011;57507;43.056;0.150;2023-02-28T14:45:51;3.15;;;2.63;;
70138;SDS011;57507;43.056;0.150;2023-02-28T14:48:18;3.30;;;2.72;;
70138;SDS011;57507;43.056;0.150;2023-02-28T14:50:49;2.80;;;2.60;;
70138;SDS011;57507;43.056;0.150;2023-02-28T14:53:17;5.25;;;2.80;;
70138;SDS011;57507;43.056;0.150;2023-02-28T14:55:45;5.35;;;3.25;;
70138;SDS011;57507;43.056;0.150;2023-02-28T14:58:21;4.00;;;3.08;;
70138;SDS011;57507;43.056;0.150;2023-02-28T15:00:51;3.15;;;2.85;;
70138;SDS011;57507;43.056;0.150;2023-02-28T15:03:19;3.25;;;2.58;;
70138;SDS011;57507;43.056;0.150;2023-02-28T15:05:53;3.15;;;2.60;;
70138;SDS011;57507;43.056;0.150;2023-02-28T15:08:19;3.40;;;3.10;;
70138;SDS011;57507;43.056;0.150;2023-02-28T15:10:49;3.10;;;2.40;;
70138;SDS011;57507;43.056;0.150;2023-02-28T15:13:16;2.58;;;2.38;;
70138;SDS011;57507;43.056;0.150;2023-02-28T15:15:45;2.92;;;2.63;;
70138;SDS011;57507;43.056;0.150;2023-02-28T15:18:22;2.70;;;2.10;;
70138;SDS011;57507;43.056;0.150;2023-02-28T15:20:50;4.40;;;2.83;;
70138;SDS011;57507;43.056;0.150;2023-02-28T15:23:16;2.60;;;2.40;;
70138;SDS011;57507;43.056;0.150;2023-02-28T15:25:43;2.95;;;2.17;;
70138;SDS011;57507;43.056;0.150;2023-02-28T15:28:12;3.42;;;2.50;;
70138;SDS011;57507;43.056;0.150;2023-02-28T15:30:49;3.03;;;2.65;;
70138;SDS011;57507;43.056;0.150;2023-02-28T15:33:25;3.95;;;2.60;;
70138;SDS011;57507;43.056;0.150;2023-02-28T15:36:03;2.50;;;2.15;;
70138;SDS011;57507;43.056;0.150;2023-02-28T15:38:29;2.60;;;2.10;;
70138;SDS011;57507;43.056;0.150;2023-02-28T15:40:55;3.65;;;2.80;;
70138;SDS011;57507;43.056;0.150;2023-02-28T15:43:35;3.08;;;2.30;;
70138;SDS011;57507;43.056;0.150;2023-02-28T15:46:12;3.30;;;2.95;;
70138;SDS011;57507;43.056;0.150;2023-02-28T15:48:44;4.38;;;3.00;;
70138;SDS011;57507;43.056;0.150;2023-02-28T15:51:20;3.33;;;2.20;;
70138;SDS011;57507;43.056;0.150;2023-02-28T15:53:49;3.35;;;2.53;;
70138;SDS011;57507;43.056;0.150;2023-02-28T15:56:25;3.75;;;2.40;;
70138;SDS011;57507;43.056;0.150;2023-02-28T15:58:55;2.63;;;2.42;;
70138;SDS011;57507;43.056;0.150;2023-02-28T16:01:25;3.25;;;2.63;;
70138;SDS011;57507;43.056;0.150;2023-02-28T16:03:53;2.60;;;2.20;;
70138;SDS011;57507;43.056;0.150;2023-02-28T16:06:36;3.67;;;2.70;;
70138;SDS011;57507;43.056;0.150;2023-02-28T16:09:04;3.03;;;2.53;;
70138;SDS011;57507;43.056;0.150;2023-02-28T16:11:33;3.65;;;2.95;;
70138;SDS011;57507;43.056;0.150;2023-02-28T16:13:59;4.53;;;2.78;;
70138;SDS011;57507;43.056;0.150;2023-02-28T16:16:25;3.28;;;2.47;;
70138;SDS011;57507;43.056;0.150;2023-02-28T16:18:52;2.40;;;2.17;;
70138;SDS011;57507;43.056;0.150;2023-02-28T16:21:18;2.78;;;2.25;;
70138;SDS011;57507;43.056;0.150;2023-02-28T16:23:44;3.67;;;2.95;;
70138;SDS011;57507;43.056;0.150;2023-02-28T16:26:15;4.70;;;2.67;;
70138;SDS011;57507;43.056;0.150;2023-02-28T16:28:43;3.72;;;3.00;;
70138;SDS011;57507;43.056;0.150;2023-02-28T16:31:09;3.83;;;2.97;;
70138;SDS011;57507;43.056;0.150;2023-02-28T16:33:41;2.85;;;2.58;;
70138;SDS011;57507;43.056;0.150;2023-02-28T16:36:09;3.03;;;2.25;;
70138;SDS011;57507;43.056;0.150;2023-02-28T16:38:35;2.00;;;1.90;;
70138;SDS011;57507;43.056;0.150;2023-02-28T16:41:01;2.75;;;2.53;;
70138;SDS011;57507;43.056;0.150;2023-02-28T16:43:27;3.30;;;2.58;;
70138;SDS011;57507;43.056;0.150;2023-02-28T16:45:54;2.65;;;2.30;;
70138;SDS011;57507;43.056;0.150;2023-02-28T16:48:22;3.40;;;2.40;;
70138;SDS011;57507;43.056;0.150;2023-02-28T16:50:49;3.58;;;2.35;;
70138;SDS011;57507;43.056;0.150;2023-02-28T16:53:15;2.40;;;2.20;;
70138;SDS011;57507;43.056;0.150;2023-02-28T16:55:41;3.15;;;2.20;;
70138;SDS011;57507;43.056;0.150;2023-02-28T16:58:10;2.97;;;2.50;;
70138;SDS011;57507;43.056;0.150;2023-02-28T17:00:39;3.13;;;2.42;;
70138;SDS011;57507;43.056;0.150;2023-02-28T17:03:05;2.55;;;2.17;;
70138;SDS011;57507;43.056;0.150;2023-02-28T17:05:35;3.13;;;2.17;;
70138;SDS011;57507;43.056;0.150;2023-02-28T17:08:02;3.42;;;2.60;;
70138;SDS011;57507;43.056;0.150;2023-02-28T17:10:29;5.32;;;2.58;;
70138;SDS011;57507;43.056;0.150;2023-02-28T17:12:55;2.83;;;2.20;;
70138;SDS011;57507;43.056;0.150;2023-02-28T17:15:21;3.20;;;2.15;;
70138;SDS011;57507;43.056;0.150;2023-02-28T17:17:47;1.90;;;1.70;;
70138;SDS011;57507;43.056;0.150;2023-02-28T17:20:20;3.38;;;2.28;;
70138;SDS011;57507;43.056;0.150;2023-02-28T17:22:51;2.47;;;2.28;;
70138;SDS011;57507;43.056;0.150;2023-02-28T17:25:18;3.08;;;2.17;;
70138;SDS011;57507;43.056;0.150;2023-02-28T17:27:44;4.40;;;2.63;;